Perry Village, Pennsylvania
Current Conditions -  °F | °C
As of 11:56 AM on Thursday 27 Nov 2014 (Local Time) from KCXY Reporting Station
Overcast Overcast  
Wind Chill: 30°   Ceiling: 6000
Heat Index: 37°   Visibility: 10mi
Dew Point: 27°   Wind: 9mph
Humidity: 67%   Direction: 310°NW
Pressure: 30.05"   Gusts: NA
Location:  40.4189°N, 77.1972°W
Report Text: KCXY 271656Z 31008KT 10SM OVC060 03/M03 A3005 RMK AO2 SLP178 T00281028
Loading
Personal Weather Stations






























Interactive Weather Map New forecast layout! Learn more

10-Day Weather Forecast

Advertisements
Track Severe Weather on mobile